createdAt,value
2023-03-06T00:01:00.586Z,80.42
2023-03-06T00:03:28.241Z,80.51
2023-03-06T00:05:57.639Z,79.57
2023-03-06T00:08:26.572Z,79.97
2023-03-06T00:10:53.808Z,80.03
2023-03-06T00:13:21.018Z,79.54
2023-03-06T00:15:49.308Z,79.80
2023-03-06T00:18:16.389Z,79.61
2023-03-06T00:20:44.295Z,79.41
2023-03-06T00:23:11.927Z,79.36
2023-03-06T00:25:43.157Z,79.21
2023-03-06T00:28:10.367Z,79.21
2023-03-06T00:30:37.718Z,79.25
2023-03-06T00:33:04.920Z,79.53
2023-03-06T00:35:31.841Z,79.69
2023-03-06T00:37:59.896Z,79.93
2023-03-06T00:40:27.513Z,79.76
2023-03-06T00:42:54.442Z,79.90
2023-03-06T00:45:21.446Z,79.72
2023-03-06T00:47:48.460Z,79.25
2023-03-06T00:50:15.500Z,79.19
2023-03-06T00:52:42.583Z,80.21
2023-03-06T00:55:10.751Z,79.36
2023-03-06T00:57:37.744Z,79.24
2023-03-06T01:00:06.312Z,79.75
2023-03-06T01:02:33.818Z,79.40
2023-03-06T01:05:00.802Z,79.34
2023-03-06T01:07:27.938Z,79.06
2023-03-06T01:09:54.887Z,79.08
2023-03-06T01:12:23.516Z,78.73
2023-03-06T01:14:51.627Z,78.97
2023-03-06T01:17:18.572Z,79.04
2023-03-06T01:19:45.518Z,79.19
2023-03-06T01:22:14.266Z,79.42
2023-03-06T01:24:41.162Z,79.67
2023-03-06T01:27:08.409Z,79.93
2023-03-06T01:29:35.385Z,79.78
2023-03-06T01:32:03.720Z,79.48
2023-03-06T01:34:30.864Z,79.47
2023-03-06T01:36:57.925Z,80.24
2023-03-06T01:39:25.110Z,80.43
2023-03-06T01:41:52.261Z,80.02
2023-03-06T01:44:21.139Z,80.52
2023-03-06T01:46:53.700Z,81.08
2023-03-06T01:49:25.855Z,81.03
2023-03-06T01:52:01.856Z,80.92
2023-03-06T01:54:35.232Z,81.54
2023-03-06T01:57:10.239Z,81.20
2023-03-06T01:59:39.390Z,81.91
2023-03-06T02:02:10.740Z,81.40
2023-03-06T02:04:40.451Z,81.87
2023-03-06T02:07:08.522Z,82.08
2023-03-06T02:09:37.634Z,82.32
2023-03-06T02:12:14.493Z,82.49
2023-03-06T02:14:42.581Z,82.35
2023-03-06T02:17:12.865Z,83.38
2023-03-06T02:20:13.103Z,82.79
2023-03-06T02:23:11.627Z,83.42
2023-03-06T02:25:41.533Z,84.59
2023-03-06T02:28:13.786Z,84.46
2023-03-06T02:30:42.616Z,84.11
2023-03-06T02:33:19.264Z,83.93
2023-03-06T02:35:55.622Z,84.61
2023-03-06T02:38:28.164Z,83.96
2023-03-06T02:41:02.385Z,83.68
2023-03-06T02:43:37.831Z,84.26
2023-03-06T02:46:04.946Z,84.11
2023-03-06T02:48:32.433Z,83.85
2023-03-06T02:51:00.092Z,84.10
2023-03-06T02:53:27.519Z,84.54
2023-03-06T02:55:54.758Z,84.89
2023-03-06T02:58:21.848Z,84.52
2023-03-06T03:00:49.718Z,84.27
2023-03-06T03:03:18.070Z,84.20
2023-03-06T03:05:44.940Z,84.02
2023-03-06T03:08:19.753Z,84.14
2023-03-06T03:10:48.489Z,84.80
2023-03-06T03:13:15.620Z,84.80
2023-03-06T03:15:42.690Z,85.43
2023-03-06T03:18:11.591Z,85.33
2023-03-06T03:20:42.359Z,84.99
2023-03-06T03:23:09.516Z,85.04
2023-03-06T03:25:36.494Z,85.70
2023-03-06T03:28:04.093Z,85.69
2023-03-06T03:30:31.333Z,85.89
2023-03-06T03:33:01.598Z,86.54
2023-03-06T03:35:28.880Z,86.63
2023-03-06T03:37:57.186Z,87.04
2023-03-06T03:40:24.188Z,86.26
2023-03-06T03:42:51.735Z,86.22
2023-03-06T03:45:19.948Z,86.38
2023-03-06T03:47:46.967Z,86.13
2023-03-06T03:50:14.180Z,86.31
2023-03-06T03:52:41.440Z,86.82
2023-03-06T03:55:08.704Z,86.48
2023-03-06T03:57:39.293Z,86.68
2023-03-06T04:00:08.241Z,85.89
2023-03-06T04:02:45.690Z,86.31
2023-03-06T04:05:30.035Z,86.44
2023-03-06T04:07:57.544Z,86.69
2023-03-06T04:10:24.495Z,85.83
2023-03-06T04:12:51.670Z,86.17
2023-03-06T04:15:18.731Z,85.81
2023-03-06T04:17:47.188Z,86.21
2023-03-06T04:20:18.048Z,86.31
2023-03-06T04:22:46.711Z,86.58
2023-03-06T04:25:13.849Z,86.90
2023-03-06T04:27:41.477Z,86.49
2023-03-06T04:30:09.381Z,87.04
2023-03-06T04:32:36.723Z,86.36
2023-03-06T04:35:05.376Z,87.01
2023-03-06T04:37:37.222Z,86.48
2023-03-06T04:40:05.607Z,86.93
2023-03-06T04:42:32.816Z,86.45
2023-03-06T04:45:04.353Z,86.58
2023-03-06T04:47:31.448Z,86.03
2023-03-06T04:49:58.322Z,85.30
2023-03-06T04:52:25.237Z,84.72
2023-03-06T04:54:52.257Z,85.15
2023-03-06T04:57:19.155Z,84.96
2023-03-06T04:59:46.173Z,84.70
2023-03-06T05:02:13.178Z,83.86
2023-03-06T05:04:40.120Z,84.36
2023-03-06T05:07:07.038Z,84.05
2023-03-06T05:09:38.839Z,83.45
2023-03-06T05:12:06.393Z,83.42
2023-03-06T05:14:33.349Z,83.27
2023-03-06T05:17:00.484Z,83.10
2023-03-06T05:19:27.575Z,82.57
2023-03-06T05:21:54.447Z,82.91
2023-03-06T05:24:21.500Z,82.48
2023-03-06T05:26:48.432Z,83.13
2023-03-06T05:29:15.350Z,83.46
2023-03-06T05:31:42.299Z,83.72
2023-03-06T05:34:13.499Z,84.08
2023-03-06T05:36:40.410Z,84.02
2023-03-06T05:39:07.867Z,84.98
2023-03-06T05:41:35.301Z,83.93
2023-03-06T05:44:02.412Z,83.68
2023-03-06T05:46:29.322Z,83.55
2023-03-06T05:48:57.608Z,83.24
2023-03-06T05:51:26.729Z,81.37
2023-03-06T05:53:53.785Z,80.25
2023-03-06T05:56:21.960Z,80.42
2023-03-06T05:58:49.010Z,79.21
2023-03-06T06:01:18.754Z,78.59
2023-03-06T06:03:46.470Z,76.62
2023-03-06T06:06:15.264Z,78.04
2023-03-06T06:08:42.329Z,76.76
2023-03-06T06:11:11.256Z,76.91
2023-03-06T06:13:38.872Z,75.91
2023-03-06T06:16:19.205Z,76.16
2023-03-06T06:18:46.375Z,75.98
2023-03-06T06:21:14.818Z,75.95
2023-03-06T06:23:42.058Z,77.17
2023-03-06T06:26:10.409Z,76.04
2023-03-06T06:28:37.460Z,76.31
2023-03-06T06:31:12.421Z,76.25
2023-03-06T06:33:40.719Z,75.79
2023-03-06T06:36:16.100Z,75.14
2023-03-06T06:38:43.468Z,75.38
2023-03-06T06:41:35.982Z,75.51
2023-03-06T06:43:59.073Z,75.01
2023-03-06T06:47:14.377Z,74.55
2023-03-06T06:49:14.947Z,73.86
2023-03-06T06:51:42.206Z,73.88
2023-03-06T06:54:11.118Z,74.18
2023-03-06T06:56:38.470Z,74.00
2023-03-06T06:59:15.978Z,74.44
2023-03-06T07:01:43.929Z,73.67
2023-03-06T07:04:14.308Z,73.05
2023-03-06T07:06:42.208Z,71.51
2023-03-06T07:09:09.181Z,71.90
2023-03-06T07:11:37.857Z,70.82
2023-03-06T07:14:05.302Z,69.71
2023-03-06T07:16:32.241Z,70.71
2023-03-06T07:18:59.102Z,68.69
2023-03-06T07:21:25.976Z,67.23
2023-03-06T07:23:54.369Z,68.00
2023-03-06T07:26:21.413Z,66.29
2023-03-06T07:28:53.136Z,66.42
2023-03-06T07:31:22.567Z,66.49
2023-03-06T07:33:50.367Z,66.04
2023-03-06T07:36:18.239Z,65.51
2023-03-06T07:38:45.604Z,65.27
2023-03-06T07:41:15.405Z,65.32
2023-03-06T07:43:51.993Z,64.95
2023-03-06T07:46:23.515Z,65.63
2023-03-06T07:48:50.399Z,65.47
2023-03-06T07:51:20.128Z,65.87
2023-03-06T07:53:47.719Z,66.01
2023-03-06T07:56:14.862Z,65.63
2023-03-06T07:58:44.927Z,66.36
2023-03-06T08:01:15.245Z,65.16
2023-03-06T08:03:42.874Z,65.66
2023-03-06T08:06:15.405Z,66.87
2023-03-06T08:08:44.521Z,67.41
2023-03-06T08:11:12.837Z,67.04
2023-03-06T08:13:40.501Z,65.27
2023-03-06T08:16:08.346Z,62.86
2023-03-06T08:18:35.612Z,61.69
2023-03-06T08:21:09.583Z,60.87
2023-03-06T08:23:37.175Z,59.54
2023-03-06T08:26:07.107Z,60.05
2023-03-06T08:28:42.033Z,59.46
2023-03-06T08:31:40.817Z,58.02
2023-03-06T08:34:10.459Z,58.70
2023-03-06T08:36:37.673Z,59.52
2023-03-06T08:39:05.255Z,58.98
2023-03-06T08:41:33.339Z,56.75
2023-03-06T08:44:00.896Z,57.04
2023-03-06T08:46:30.009Z,57.66
2023-03-06T08:48:57.742Z,56.63
2023-03-06T08:51:25.108Z,57.41
2023-03-06T08:53:52.282Z,58.41
2023-03-06T08:56:28.491Z,59.05
2023-03-06T08:58:57.586Z,58.85
2023-03-06T09:01:28.560Z,58.76
2023-03-06T09:03:57.936Z,58.94
2023-03-06T09:06:26.648Z,58.50
2023-03-06T09:08:54.598Z,58.72
2023-03-06T09:11:23.716Z,59.52
2023-03-06T09:13:50.842Z,60.97
2023-03-06T09:16:18.244Z,60.78
2023-03-06T09:18:45.587Z,61.39
2023-03-06T09:21:25.094Z,61.06
2023-03-06T09:23:52.560Z,61.04
2023-03-06T09:26:19.640Z,61.05
2023-03-06T09:28:47.063Z,61.70
2023-03-06T09:31:17.411Z,61.21
2023-03-06T09:33:45.351Z,60.88
2023-03-06T09:36:17.794Z,60.85
2023-03-06T09:38:45.980Z,61.29
2023-03-06T09:41:30.506Z,60.15
2023-03-06T09:44:18.843Z,60.13
2023-03-06T09:47:03.782Z,59.99
2023-03-06T09:49:57.550Z,58.08
2023-03-06T09:52:34.047Z,56.77
2023-03-06T09:55:20.464Z,55.87
2023-03-06T09:58:07.464Z,55.52
2023-03-06T10:00:39.229Z,55.35
2023-03-06T10:03:22.590Z,55.38
2023-03-06T10:06:02.765Z,56.64
2023-03-06T10:08:48.506Z,57.08
2023-03-06T10:11:22.930Z,57.90
2023-03-06T10:14:01.172Z,58.49
2023-03-06T10:16:33.219Z,59.34
2023-03-06T10:19:03.640Z,59.15
2023-03-06T10:21:45.513Z,59.51
2023-03-06T10:24:49.472Z,59.09
2023-03-06T10:27:17.021Z,57.10
2023-03-06T10:30:01.711Z,56.05
2023-03-06T10:32:49.492Z,56.85
2023-03-06T10:35:25.788Z,56.54
2023-03-06T10:38:01.115Z,56.51
2023-03-06T10:40:38.499Z,57.44
2023-03-06T10:43:12.174Z,60.04
2023-03-06T10:45:51.374Z,63.20
2023-03-06T10:48:24.593Z,64.39
2023-03-06T10:50:53.528Z,66.84
2023-03-06T10:53:29.248Z,69.54
2023-03-06T10:56:00.511Z,70.16
2023-03-06T10:58:30.363Z,71.14
2023-03-06T11:01:01.979Z,70.40
2023-03-06T11:03:29.615Z,69.84
2023-03-06T11:06:13.350Z,70.83
2023-03-06T11:08:43.469Z,69.76
2023-03-06T11:11:36.841Z,69.96
2023-03-06T11:14:15.885Z,69.65
2023-03-06T11:16:53.443Z,70.11
2023-03-06T11:19:23.675Z,71.34
2023-03-06T11:22:17.378Z,71.58
2023-03-06T11:24:48.757Z,71.72
2023-03-06T11:27:15.607Z,67.46
2023-03-06T11:29:48.806Z,64.96
2023-03-06T11:32:57.871Z,61.98
2023-03-06T11:35:52.089Z,57.82
2023-03-06T11:38:38.994Z,57.07
2023-03-06T11:41:14.943Z,57.48
2023-03-06T11:43:53.169Z,57.10
2023-03-06T11:46:26.474Z,57.62
2023-03-06T11:49:04.678Z,57.96
2023-03-06T11:51:38.149Z,57.32
2023-03-06T11:54:05.315Z,55.72
2023-03-06T11:56:44.455Z,55.24
2023-03-06T11:59:29.141Z,56.08
2023-03-06T12:02:20.292Z,56.05
2023-03-06T12:05:09.872Z,54.83
2023-03-06T12:07:45.025Z,55.09
2023-03-06T12:10:35.538Z,55.27
2023-03-06T12:13:30.203Z,55.23
2023-03-06T12:16:18.618Z,57.18
2023-03-06T12:19:22.242Z,58.42
2023-03-06T12:22:23.380Z,58.90
2023-03-06T12:24:56.352Z,58.86
2023-03-06T12:27:35.018Z,58.38
2023-03-06T12:30:09.984Z,58.22
2023-03-06T12:32:55.860Z,59.11
2023-03-06T12:35:56.998Z,60.42
2023-03-06T12:38:52.141Z,61.45
2023-03-06T12:41:34.333Z,63.41
2023-03-06T12:44:07.410Z,63.28
2023-03-06T12:46:58.835Z,65.17
2023-03-06T12:49:38.828Z,65.73
2023-03-06T12:52:18.529Z,65.93
2023-03-06T12:54:46.154Z,66.53
2023-03-06T12:57:15.753Z,67.13
2023-03-06T12:59:50.146Z,67.00
2023-03-06T13:02:41.714Z,67.43
2023-03-06T13:05:41.503Z,67.41
2023-03-06T13:08:17.500Z,68.00
2023-03-06T13:10:48.696Z,66.48
2023-03-06T13:13:45.936Z,67.23
2023-03-06T13:16:18.873Z,65.61
2023-03-06T13:18:51.081Z,65.26
2023-03-06T13:21:42.738Z,64.92
2023-03-06T13:24:23.112Z,64.28
2023-03-06T13:27:00.029Z,64.20
2023-03-06T13:29:38.993Z,64.07
2023-03-06T13:32:17.263Z,63.98
2023-03-06T13:34:48.589Z,64.09
2023-03-06T13:37:23.277Z,63.79
2023-03-06T13:39:56.781Z,63.09
2023-03-06T13:42:38.014Z,61.95
2023-03-06T13:45:15.107Z,60.14
2023-03-06T13:48:09.630Z,57.02
2023-03-06T13:50:29.132Z,57.45
2023-03-06T13:53:17.198Z,57.15
2023-03-06T13:56:53.197Z,57.06
2023-03-06T13:59:38.795Z,57.30
2023-03-06T14:02:27.265Z,56.56
2023-03-06T14:05:02.465Z,57.49
2023-03-06T14:07:33.658Z,57.63
2023-03-06T14:10:15.154Z,57.43
2023-03-06T14:12:51.203Z,58.07
2023-03-06T14:15:24.892Z,58.49
2023-03-06T14:18:02.317Z,58.32
2023-03-06T14:21:04.761Z,58.84
2023-03-06T14:23:35.631Z,59.04
2023-03-06T14:26:05.483Z,58.27
2023-03-06T14:28:34.337Z,58.66
2023-03-06T14:31:03.600Z,58.18
2023-03-06T14:33:40.237Z,57.59
2023-03-06T14:36:10.764Z,57.65
2023-03-06T14:38:44.244Z,57.79
2023-03-06T14:41:13.040Z,57.57
2023-03-06T14:43:41.002Z,58.78
2023-03-06T14:46:18.327Z,59.02
2023-03-06T14:48:47.000Z,60.39
2023-03-06T14:51:25.605Z,60.97
2023-03-06T14:53:54.598Z,61.72
2023-03-06T14:56:26.511Z,61.93
2023-03-06T14:59:03.984Z,62.16
2023-03-06T15:01:31.094Z,63.36
2023-03-06T15:04:00.431Z,63.59
2023-03-06T15:06:37.831Z,65.53
2023-03-06T15:09:24.472Z,67.00
2023-03-06T15:12:03.819Z,68.12
2023-03-06T15:14:41.962Z,71.34
2023-03-06T15:17:18.041Z,71.87
2023-03-06T15:19:47.674Z,74.63
2023-03-06T15:22:25.562Z,74.84
2023-03-06T15:24:53.357Z,76.29
2023-03-06T15:27:29.602Z,76.68
2023-03-06T15:30:36.529Z,76.81
2023-03-06T15:33:25.755Z,75.57
2023-03-06T15:35:52.800Z,76.92
2023-03-06T15:38:41.924Z,77.30
2023-03-06T15:41:31.394Z,77.38
2023-03-06T15:44:00.345Z,77.46
2023-03-06T15:46:28.002Z,78.33
2023-03-06T15:48:59.787Z,80.90
2023-03-06T15:51:28.678Z,79.33
2023-03-06T15:54:09.693Z,78.44
2023-03-06T15:56:44.629Z,80.41
2023-03-06T15:59:24.698Z,80.98
2023-03-06T16:01:52.527Z,82.25
2023-03-06T16:04:20.041Z,81.22
2023-03-06T16:06:47.218Z,81.93
2023-03-06T16:09:14.604Z,81.70
2023-03-06T16:11:44.934Z,82.32
2023-03-06T16:14:23.976Z,82.41
2023-03-06T16:16:54.183Z,81.49
2023-03-06T16:19:27.795Z,80.63
2023-03-06T16:21:56.854Z,80.99
2023-03-06T16:24:26.190Z,81.06
2023-03-06T16:26:55.076Z,80.74
2023-03-06T16:29:24.705Z,80.50
2023-03-06T16:31:51.994Z,80.75
2023-03-06T16:34:21.956Z,80.80
2023-03-06T16:36:50.212Z,81.04
2023-03-06T16:39:22.776Z,81.35
2023-03-06T16:41:50.877Z,80.40
2023-03-06T16:44:17.939Z,81.17
2023-03-06T16:46:47.477Z,80.05
2023-03-06T16:49:18.537Z,80.15
2023-03-06T16:51:45.683Z,80.45
2023-03-06T16:54:13.446Z,79.37
2023-03-06T16:56:40.528Z,78.85
2023-03-06T16:59:07.489Z,78.94
2023-03-06T17:01:34.642Z,79.13
2023-03-06T17:04:01.760Z,78.48
2023-03-06T17:06:28.837Z,77.70
2023-03-06T17:08:58.046Z,77.36
2023-03-06T17:11:25.260Z,77.21
2023-03-06T17:13:52.219Z,77.13
2023-03-06T17:16:19.381Z,76.67
2023-03-06T17:18:46.670Z,76.70
2023-03-06T17:21:15.776Z,77.17
2023-03-06T17:23:44.546Z,76.41
2023-03-06T17:26:20.480Z,76.15
2023-03-06T17:28:47.591Z,76.55
2023-03-06T17:31:26.758Z,76.27
2023-03-06T17:33:57.314Z,76.20
2023-03-06T17:36:24.236Z,76.03
2023-03-06T17:38:51.466Z,75.96
2023-03-06T17:41:18.617Z,75.51
2023-03-06T17:43:45.548Z,75.53
2023-03-06T17:46:13.659Z,75.62
2023-03-06T17:48:40.686Z,76.06
2023-03-06T17:51:08.386Z,75.81
2023-03-06T17:53:35.995Z,76.21
2023-03-06T17:56:12.716Z,76.37
2023-03-06T17:58:39.671Z,76.80
2023-03-06T18:01:18.458Z,77.20
2023-03-06T18:03:47.901Z,77.04
2023-03-06T18:06:16.595Z,77.97
2023-03-06T18:08:44.163Z,78.04
2023-03-06T18:11:11.719Z,79.25
2023-03-06T18:13:41.727Z,79.60
2023-03-06T18:16:11.390Z,79.68
2023-03-06T18:18:38.793Z,80.04
2023-03-06T18:21:11.050Z,80.21
2023-03-06T18:23:39.998Z,79.94
2023-03-06T18:26:18.946Z,80.28
2023-03-06T18:28:49.122Z,80.08
2023-03-06T18:31:22.085Z,80.02
2023-03-06T18:33:49.928Z,81.42
2023-03-06T18:36:18.150Z,80.31
2023-03-06T18:38:45.824Z,81.38
2023-03-06T18:41:13.953Z,82.01
2023-03-06T18:43:41.053Z,82.19
2023-03-06T18:46:09.701Z,81.59
2023-03-06T18:48:37.377Z,81.96
2023-03-06T18:51:10.015Z,83.10
2023-03-06T18:53:37.325Z,82.32
2023-03-06T18:56:04.397Z,83.40
2023-03-06T18:58:31.448Z,83.66
2023-03-06T19:00:59.827Z,83.65
2023-03-06T19:03:27.505Z,84.33
2023-03-06T19:05:54.575Z,83.66
2023-03-06T19:08:21.829Z,83.33
2023-03-06T19:10:50.218Z,82.52
2023-03-06T19:13:17.337Z,83.81
2023-03-06T19:15:49.036Z,83.55
2023-03-06T19:18:18.036Z,83.28
2023-03-06T19:20:45.410Z,84.23
2023-03-06T19:23:12.386Z,83.72
2023-03-06T19:25:39.440Z,83.97
2023-03-06T19:28:06.610Z,84.27
2023-03-06T19:30:33.836Z,83.98
2023-03-06T19:33:00.842Z,84.32
2023-03-06T19:35:27.939Z,84.15
2023-03-06T19:37:55.002Z,83.58
2023-03-06T19:40:22.108Z,83.85
2023-03-06T19:42:49.979Z,83.22
2023-03-06T19:45:17.244Z,83.47
2023-03-06T19:47:44.289Z,82.49
2023-03-06T19:50:11.640Z,82.28
2023-03-06T19:52:40.768Z,82.50
2023-03-06T19:55:09.830Z,81.86
2023-03-06T19:57:37.008Z,81.96
2023-03-06T20:00:05.138Z,81.70
2023-03-06T20:02:39.927Z,81.33
2023-03-06T20:05:09.281Z,80.72
2023-03-06T20:07:36.319Z,80.18
2023-03-06T20:10:03.966Z,80.09
2023-03-06T20:12:32.764Z,80.39
2023-03-06T20:15:00.187Z,79.39
2023-03-06T20:17:27.972Z,79.43
2023-03-06T20:19:55.206Z,79.10
2023-03-06T20:22:22.222Z,78.47
2023-03-06T20:24:49.306Z,78.27
2023-03-06T20:27:16.256Z,77.71
2023-03-06T20:29:44.815Z,77.41
2023-03-06T20:32:13.341Z,77.22
2023-03-06T20:34:40.915Z,77.53
2023-03-06T20:37:09.796Z,77.17
2023-03-06T20:39:37.424Z,76.88
2023-03-06T20:42:04.827Z,76.23
2023-03-06T20:44:32.031Z,75.59
2023-03-06T20:46:59.206Z,75.65
2023-03-06T20:49:27.386Z,75.98
2023-03-06T20:51:55.721Z,75.96
2023-03-06T20:54:22.727Z,75.29
2023-03-06T20:56:50.401Z,75.37
2023-03-06T20:59:17.452Z,75.67
2023-03-06T21:01:45.810Z,75.34
2023-03-06T21:04:14.137Z,74.94
2023-03-06T21:06:46.337Z,75.07
2023-03-06T21:09:16.178Z,75.24
2023-03-06T21:11:43.354Z,74.95
2023-03-06T21:14:12.459Z,74.76
2023-03-06T21:16:40.288Z,74.88
2023-03-06T21:19:07.383Z,73.86
2023-03-06T21:21:35.123Z,73.76
2023-03-06T21:24:02.790Z,74.57
2023-03-06T21:26:33.715Z,74.30
2023-03-06T21:29:01.114Z,74.81
2023-03-06T21:31:29.074Z,74.09
2023-03-06T21:33:59.617Z,74.57
2023-03-06T21:36:27.461Z,73.64
2023-03-06T21:38:55.458Z,73.58
2023-03-06T21:41:27.923Z,73.36
2023-03-06T21:44:02.831Z,73.84
2023-03-06T21:46:30.075Z,74.00
2023-03-06T21:48:57.235Z,73.43
2023-03-06T21:51:25.893Z,73.70
2023-03-06T21:53:54.024Z,73.72
2023-03-06T21:56:23.991Z,73.46
2023-03-06T21:58:51.216Z,72.84
2023-03-06T22:01:21.828Z,73.49
2023-03-06T22:03:48.915Z,73.09
2023-03-06T22:06:21.764Z,72.99
2023-03-06T22:08:48.901Z,72.40
2023-03-06T22:11:18.493Z,72.80
2023-03-06T22:13:46.304Z,72.68
2023-03-06T22:16:14.583Z,72.81
2023-03-06T22:18:46.178Z,72.60
2023-03-06T22:21:16.163Z,72.64
2023-03-06T22:23:43.209Z,72.56
2023-03-06T22:26:13.711Z,72.30
2023-03-06T22:28:41.771Z,72.28
2023-03-06T22:31:11.414Z,72.25
2023-03-06T22:33:38.792Z,71.93
2023-03-06T22:36:14.204Z,72.00
2023-03-06T22:38:43.043Z,71.47
2023-03-06T22:41:12.813Z,71.70
2023-03-06T22:43:42.812Z,72.17
2023-03-06T22:46:13.010Z,71.45
2023-03-06T22:48:40.492Z,71.53
2023-03-06T22:51:10.372Z,71.77
2023-03-06T22:53:37.744Z,70.49
2023-03-06T22:56:06.450Z,70.49
2023-03-06T22:58:37.308Z,71.32
2023-03-06T23:01:09.974Z,70.95
2023-03-06T23:03:38.656Z,70.97
2023-03-06T23:06:14.920Z,70.79
2023-03-06T23:08:42.400Z,70.59
2023-03-06T23:11:14.682Z,70.74
2023-03-06T23:14:00.191Z,71.38
2023-03-06T23:16:45.549Z,71.29
2023-03-06T23:19:31.551Z,71.32
2023-03-06T23:22:17.332Z,71.64
2023-03-06T23:25:02.980Z,71.65
2023-03-06T23:27:30.750Z,71.12
2023-03-06T23:29:59.192Z,71.88
2023-03-06T23:32:26.239Z,71.18
2023-03-06T23:34:53.246Z,71.43
2023-03-06T23:37:20.544Z,70.74
2023-03-06T23:39:47.871Z,70.55
2023-03-06T23:42:30.468Z,70.84
2023-03-06T23:45:01.240Z,70.87
2023-03-06T23:47:32.199Z,70.85
2023-03-06T23:49:59.321Z,70.70
2023-03-06T23:52:26.854Z,70.78
2023-03-06T23:54:54.177Z,70.75
2023-03-06T23:57:21.054Z,71.02
2023-03-06T23:59:47.891Z,70.15
